Time;durP1;ratioP1;P1;durP2;ratioP2;P2;SDS_P1;SDS_P2;PMS_P1;PMS_P2;Temp;Humidity;BMP_temperature;BMP_pressure;BME280_temperature;BME280_humidity;BME280_pressure;Samples;Min_cycle;Max_cycle;Signal;HPM_P1;HPM_P2
2023/07/31 00:01:05;;;;;;;;;;;16.20;99.90;;;;;;5133719;27;19931;-60
2023/07/31 00:03:32;;;;;;;;;;;16.20;99.90;;;;;;5115183;27;19935;-61
2023/07/31 00:05:58;;;;;;;;;;;16.20;99.90;;;;;;5113768;27;19928;-60
2023/07/31 00:08:25;;;;;;;;;;;16.10;99.90;;;;;;5133227;27;19996;-60
2023/07/31 00:10:53;;;;;;;;;;;16.20;99.90;;;;;;5114011;28;19989;-59
2023/07/31 00:13:20;;;;;;;;;;;16.20;99.90;;;;;;5133926;27;19931;-60
2023/07/31 00:15:47;;;;;;;;;;;16.20;99.90;;;;;;5113401;27;19924;-59
2023/07/31 00:18:14;;;;;;;;;;;16.10;99.90;;;;;;5114802;27;19924;-60
2023/07/31 00:20:40;;;;;;;;;;;16.10;99.90;;;;;;5133710;27;19927;-60
2023/07/31 00:23:07;;;;;;;;;;;16.00;99.90;;;;;;5133009;27;19927;-60
2023/07/31 00:25:34;;;;;;;;;;;16.00;99.90;;;;;;5133619;27;20344;-59
2023/07/31 00:28:02;;;;;;;;;;;15.90;99.90;;;;;;5132834;27;19976;-59
2023/07/31 00:30:28;;;;;;;;;;;15.90;99.90;;;;;;5113711;27;19924;-59
2023/07/31 00:32:55;;;;;;;;;;;15.80;99.90;;;;;;5131336;27;20302;-59
2023/07/31 00:35:22;;;;;;;;;;;15.80;99.90;;;;;;5113984;27;19924;-60
2023/07/31 00:37:48;;;;;;;;;;;15.80;99.90;;;;;;5130620;27;20291;-59
2023/07/31 00:40:16;;;;;;;;;;;15.70;99.90;;;;;;5133463;27;19928;-60
2023/07/31 00:42:42;;;;;;;;;;;15.70;99.90;;;;;;5133008;28;19923;-59
2023/07/31 00:45:11;;;;;;;;;;;15.60;99.90;;;;;;5133628;28;19925;-59
2023/07/31 00:47:37;;;;;;;;;;;15.60;99.90;;;;;;5113096;28;19924;-60
2023/07/31 00:50:04;;;;;;;;;;;15.60;99.90;;;;;;5113676;28;19950;-60
2023/07/31 00:52:31;;;;;;;;;;;15.60;99.90;;;;;;5131342;28;20316;-59
2023/07/31 00:54:58;;;;;;;;;;;15.60;99.90;;;;;;5133338;28;19924;-60
2023/07/31 00:57:25;;;;;;;;;;;15.60;99.90;;;;;;5130523;28;19927;-59
2023/07/31 00:59:51;;;;;;;;;;;15.60;99.90;;;;;;5113865;28;19931;-60
2023/07/31 01:02:19;;;;;;;;;;;15.50;99.90;;;;;;5133398;28;19983;-60
2023/07/31 01:04:46;;;;;;;;;;;15.50;99.90;;;;;;5132635;28;20348;-59
2023/07/31 01:07:15;;;;;;;;;;;15.50;99.90;;;;;;5133179;28;19931;-59
2023/07/31 01:09:45;;;;;;;;;;;15.50;99.90;;;;;;5115838;27;20282;-60
2023/07/31 01:12:15;;;;;;;;;;;15.50;99.90;;;;;;5136573;27;19923;-59
2023/07/31 01:14:41;;;;;;;;;;;15.50;99.90;;;;;;5137464;27;20043;-59
2023/07/31 01:17:08;;;;;;;;;;;15.50;99.90;;;;;;5137209;27;19924;-59
2023/07/31 01:19:36;;;;;;;;;;;15.50;99.90;;;;;;5116363;27;19927;-60
2023/07/31 01:22:13;;;;;;;;;;;15.50;99.90;;;;;;5137072;27;19946;-60
2023/07/31 01:24:44;;;;;;;;;;;15.50;99.90;;;;;;5118755;27;19927;-60
2023/07/31 01:27:14;;;;;;;;;;;15.50;99.90;;;;;;5136314;27;19993;-60
2023/07/31 01:29:48;;;;;;;;;;;15.50;99.90;;;;;;5137040;27;19930;-60
2023/07/31 01:32:15;;;;;;;;;;;15.50;99.90;;;;;;5136377;27;20438;-61
2023/07/31 01:34:42;;;;;;;;;;;15.50;99.90;;;;;;5137064;27;19931;-61
2023/07/31 01:37:09;;;;;;;;;;;15.50;99.90;;;;;;5137037;27;19968;-59
2023/07/31 01:39:36;;;;;;;;;;;15.50;99.90;;;;;;5116808;27;20020;-59
2023/07/31 01:42:02;;;;;;;;;;;15.50;99.90;;;;;;5136968;27;20351;-60
2023/07/31 01:44:30;;;;;;;;;;;15.50;99.90;;;;;;5136719;27;20576;-60
2023/07/31 01:46:59;;;;;;;;;;;15.50;99.90;;;;;;5136224;27;19931;-59
2023/07/31 01:49:27;;;;;;;;;;;15.50;99.90;;;;;;5118229;27;19984;-60
2023/07/31 01:51:53;;;;;;;;;;;15.50;99.90;;;;;;5136848;27;19924;-60
2023/07/31 01:54:20;;;;;;;;;;;15.50;99.90;;;;;;5115164;27;19934;-60
2023/07/31 01:56:47;;;;;;;;;;;15.50;99.90;;;;;;5116988;27;20379;-60
2023/07/31 01:59:13;;;;;;;;;;;15.50;99.90;;;;;;5136129;27;19923;-60
2023/07/31 02:01:41;;;;;;;;;;;15.50;99.90;;;;;;5116366;27;19924;-60
2023/07/31 02:04:08;;;;;;;;;;;15.50;99.90;;;;;;5136510;27;19923;-61
2023/07/31 02:06:35;;;;;;;;;;;15.50;99.90;;;;;;5136429;27;19938;-60
2023/07/31 02:09:01;;;;;;;;;;;15.50;99.90;;;;;;5135761;27;20012;-59
2023/07/31 02:11:28;;;;;;;;;;;15.50;99.90;;;;;;5136069;27;20409;-60
2023/07/31 02:13:55;;;;;;;;;;;15.50;99.90;;;;;;5136281;27;20344;-59
2023/07/31 02:16:22;;;;;;;;;;;15.50;99.90;;;;;;5116371;27;19928;-59
2023/07/31 02:18:50;;;;;;;;;;;15.40;99.90;;;;;;5136114;27;19958;-60
2023/07/31 02:21:16;;;;;;;;;;;15.40;99.90;;;;;;5134346;27;20401;-59
2023/07/31 02:23:43;;;;;;;;;;;15.40;99.90;;;;;;5136162;27;19923;-60
2023/07/31 02:26:10;;;;;;;;;;;15.40;99.90;;;;;;5135889;27;19983;-60
2023/07/31 02:28:37;;;;;;;;;;;15.40;99.90;;;;;;5116234;27;19924;-60
2023/07/31 02:31:03;;;;;;;;;;;15.40;99.90;;;;;;5115579;27;19973;-60
2023/07/31 02:33:30;;;;;;;;;;;15.40;99.90;;;;;;5116464;27;19938;-60
2023/07/31 02:35:58;;;;;;;;;;;15.40;99.90;;;;;;5114942;27;19924;-60
2023/07/31 02:38:25;;;;;;;;;;;15.50;99.90;;;;;;5116765;27;20356;-60
2023/07/31 02:40:51;;;;;;;;;;;15.40;99.90;;;;;;5115107;27;19932;-60
2023/07/31 02:43:18;;;;;;;;;;;15.40;99.90;;;;;;5115916;27;19927;-59
2023/07/31 02:45:45;;;;;;;;;;;15.40;99.90;;;;;;5135573;27;19924;-60
2023/07/31 02:48:12;;;;;;;;;;;15.40;99.90;;;;;;5135521;27;20655;-60
2023/07/31 02:50:38;;;;;;;;;;;15.40;99.90;;;;;;5115606;27;19930;-60
2023/07/31 02:53:06;;;;;;;;;;;15.40;99.90;;;;;;5135418;27;19931;-60
2023/07/31 02:55:33;;;;;;;;;;;15.40;99.90;;;;;;5135377;27;19927;-60
2023/07/31 02:58:00;;;;;;;;;;;15.40;99.90;;;;;;5116306;27;20359;-60
2023/07/31 03:00:26;;;;;;;;;;;15.40;99.90;;;;;;5135358;27;19923;-60
2023/07/31 03:02:53;;;;;;;;;;;15.40;99.90;;;;;;5116752;27;19923;-60
2023/07/31 03:05:20;;;;;;;;;;;15.40;99.90;;;;;;5134593;27;19975;-60
2023/07/31 03:07:46;;;;;;;;;;;15.40;99.90;;;;;;5116459;27;19923;-60
2023/07/31 03:10:15;;;;;;;;;;;15.40;99.90;;;;;;5135034;27;19924;-60
2023/07/31 03:12:41;;;;;;;;;;;15.40;99.90;;;;;;5134626;27;19924;-59
2023/07/31 03:15:09;;;;;;;;;;;15.40;99.90;;;;;;5115481;27;19924;-59
2023/07/31 03:17:35;;;;;;;;;;;15.40;99.90;;;;;;5134537;27;19931;-59
2023/07/31 03:20:02;;;;;;;;;;;15.40;99.90;;;;;;5134754;27;19935;-60
2023/07/31 03:22:29;;;;;;;;;;;15.40;99.90;;;;;;5115973;27;20367;-59
2023/07/31 03:24:55;;;;;;;;;;;15.40;99.90;;;;;;5114348;27;19928;-60
2023/07/31 03:27:23;;;;;;;;;;;15.40;99.90;;;;;;5134740;27;19980;-61
2023/07/31 03:29:51;;;;;;;;;;;15.30;99.90;;;;;;5115443;27;19923;-61
2023/07/31 03:32:17;;;;;;;;;;;15.30;99.90;;;;;;5133934;27;20305;-60
2023/07/31 03:34:44;;;;;;;;;;;15.30;99.90;;;;;;5134776;27;19930;-60
2023/07/31 03:37:11;;;;;;;;;;;15.30;99.90;;;;;;5134441;27;20374;-59
2023/07/31 03:39:38;;;;;;;;;;;15.30;99.90;;;;;;5114343;27;19977;-60
2023/07/31 03:42:05;;;;;;;;;;;15.30;99.90;;;;;;5134495;27;20359;-60
2023/07/31 03:44:33;;;;;;;;;;;15.30;99.90;;;;;;5115149;27;19924;-61
2023/07/31 03:46:59;;;;;;;;;;;15.30;99.90;;;;;;5131583;27;19931;-61
2023/07/31 03:49:26;;;;;;;;;;;15.30;99.90;;;;;;5115006;27;20352;-60
2023/07/31 03:51:53;;;;;;;;;;;15.30;99.90;;;;;;5113868;27;19924;-59
2023/07/31 03:54:19;;;;;;;;;;;15.30;99.90;;;;;;5114553;27;19924;-60
2023/07/31 03:56:46;;;;;;;;;;;15.40;99.90;;;;;;5134231;27;19923;-60
2023/07/31 03:59:13;;;;;;;;;;;15.30;99.90;;;;;;5114646;27;19927;-60
2023/07/31 04:01:41;;;;;;;;;;;15.40;99.90;;;;;;5112389;27;19924;-61
2023/07/31 04:04:08;;;;;;;;;;;15.40;99.90;;;;;;5133828;27;19931;-60
2023/07/31 04:06:34;;;;;;;;;;;15.30;99.90;;;;;;5133740;27;20359;-60
2023/07/31 04:09:01;;;;;;;;;;;15.40;99.90;;;;;;5113904;27;19927;-60
2023/07/31 04:11:28;;;;;;;;;;;15.30;99.90;;;;;;5133712;27;19924;-60
2023/07/31 04:13:54;;;;;;;;;;;15.40;99.90;;;;;;5113957;27;20356;-61
2023/07/31 04:16:21;;;;;;;;;;;15.40;99.90;;;;;;5133880;27;19927;-62
2023/07/31 04:18:49;;;;;;;;;;;15.40;99.90;;;;;;5133739;27;20280;-60
2023/07/31 04:21:16;;;;;;;;;;;15.30;99.90;;;;;;5133162;27;20387;-60
2023/07/31 04:23:42;;;;;;;;;;;15.40;99.90;;;;;;5133891;27;20386;-60
2023/07/31 04:26:09;;;;;;;;;;;15.40;99.90;;;;;;5133655;27;19923;-59
2023/07/31 04:28:36;;;;;;;;;;;15.40;99.90;;;;;;5113690;27;19923;-60
2023/07/31 04:31:02;;;;;;;;;;;15.40;99.90;;;;;;5133677;27;19927;-59
2023/07/31 04:33:29;;;;;;;;;;;15.40;99.90;;;;;;5114455;28;19946;-60
2023/07/31 04:35:57;;;;;;;;;;;15.40;99.90;;;;;;5133150;27;19923;-61
2023/07/31 04:38:24;;;;;;;;;;;15.40;99.90;;;;;;5133309;27;20535;-60
2023/07/31 04:40:51;;;;;;;;;;;15.40;99.90;;;;;;5115050;28;19927;-59
2023/07/31 04:43:17;;;;;;;;;;;15.50;99.90;;;;;;5113855;28;19976;-60
2023/07/31 04:45:47;;;;;;;;;;;15.50;99.90;;;;;;5105197;28;20016;-60
2023/07/31 04:48:14;;;;;;;;;;;15.50;99.90;;;;;;5108316;28;19932;-60
2023/07/31 04:50:41;;;;;;;;;;;15.60;99.90;;;;;;5122168;28;19927;-61
2023/07/31 04:53:09;;;;;;;;;;;15.70;99.90;;;;;;5130264;28;19976;-60
2023/07/31 04:55:35;;;;;;;;;;;15.80;99.90;;;;;;5130429;28;19953;-60
2023/07/31 04:58:02;;;;;;;;;;;15.70;99.90;;;;;;5131634;28;19932;-60
2023/07/31 05:00:28;;;;;;;;;;;15.80;99.90;;;;;;5131221;28;20321;-59
2023/07/31 05:02:55;;;;;;;;;;;15.80;99.90;;;;;;5111738;28;20078;-60
2023/07/31 05:05:22;;;;;;;;;;;15.80;99.90;;;;;;5132787;28;19928;-59
2023/07/31 05:07:49;;;;;;;;;;;15.80;99.90;;;;;;5130856;28;19931;-60
2023/07/31 05:10:17;;;;;;;;;;;15.80;99.90;;;;;;5130138;28;19924;-60
2023/07/31 05:12:43;;;;;;;;;;;15.90;99.90;;;;;;5124485;28;19984;-60
2023/07/31 05:15:10;;;;;;;;;;;15.90;99.90;;;;;;5113268;28;20302;-60
2023/07/31 05:17:37;;;;;;;;;;;15.90;99.90;;;;;;5130254;28;20284;-59
2023/07/31 05:20:04;;;;;;;;;;;15.80;99.90;;;;;;5131174;28;19966;-60
2023/07/31 05:22:31;;;;;;;;;;;15.90;99.90;;;;;;5127228;28;19966;-60
2023/07/31 05:24:57;;;;;;;;;;;15.90;99.90;;;;;;5129556;28;19923;-59
2023/07/31 05:27:25;;;;;;;;;;;15.90;99.90;;;;;;5105971;28;19924;-62
2023/07/31 05:29:52;;;;;;;;;;;15.90;99.90;;;;;;5127845;28;19931;-60
2023/07/31 05:32:19;;;;;;;;;;;15.80;99.90;;;;;;5127722;28;19927;-61
2023/07/31 05:34:45;;;;;;;;;;;15.80;99.90;;;;;;5111561;28;20387;-59
2023/07/31 05:37:12;;;;;;;;;;;15.80;99.90;;;;;;5130913;28;20248;-61
2023/07/31 05:39:39;;;;;;;;;;;15.80;99.90;;;;;;5128810;28;19982;-60
2023/07/31 05:42:06;;;;;;;;;;;15.80;99.90;;;;;;5108501;28;19928;-61
2023/07/31 05:44:34;;;;;;;;;;;15.80;99.90;;;;;;5131585;28;19928;-60
2023/07/31 05:47:01;;;;;;;;;;;15.80;99.90;;;;;;5130685;28;19927;-61
2023/07/31 05:49:27;;;;;;;;;;;15.80;99.90;;;;;;5129035;28;20322;-60
2023/07/31 05:51:54;;;;;;;;;;;15.80;99.90;;;;;;5110272;28;19941;-61
2023/07/31 05:54:21;;;;;;;;;;;15.90;99.90;;;;;;5111202;28;20020;-60
2023/07/31 05:56:47;;;;;;;;;;;15.90;99.90;;;;;;5133072;27;19927;-61
2023/07/31 05:59:14;;;;;;;;;;;15.90;99.90;;;;;;5134519;27;19931;-60
2023/07/31 06:01:43;;;;;;;;;;;16.00;99.90;;;;;;5112120;27;20375;-60
2023/07/31 06:04:09;;;;;;;;;;;16.10;99.90;;;;;;5112493;27;19927;-60
2023/07/31 06:06:36;;;;;;;;;;;16.10;99.90;;;;;;5113576;27;20291;-60
2023/07/31 06:09:03;;;;;;;;;;;16.10;99.90;;;;;;5113131;27;19931;-60
2023/07/31 06:11:30;;;;;;;;;;;16.20;99.90;;;;;;5116253;27;19923;-60
2023/07/31 06:13:57;;;;;;;;;;;16.20;99.90;;;;;;5115418;27;19928;-61
2023/07/31 06:16:23;;;;;;;;;;;16.20;99.90;;;;;;5135568;27;20322;-60
2023/07/31 06:18:51;;;;;;;;;;;16.20;99.90;;;;;;5112023;27;19928;-60
2023/07/31 06:21:18;;;;;;;;;;;16.20;99.90;;;;;;5133866;27;19930;-59
2023/07/31 06:23:45;;;;;;;;;;;16.20;99.90;;;;;;5132666;27;19931;-59
2023/07/31 06:26:11;;;;;;;;;;;16.30;99.90;;;;;;5117035;27;19923;-60
2023/07/31 06:28:38;;;;;;;;;;;16.30;99.90;;;;;;5131911;27;19930;-60
2023/07/31 06:31:05;;;;;;;;;;;16.40;99.90;;;;;;5115819;27;19924;-59
2023/07/31 06:33:32;;;;;;;;;;;16.50;99.90;;;;;;5132908;27;20299;-60
2023/07/31 06:36:00;;;;;;;;;;;16.50;99.90;;;;;;5132611;27;19931;-60
2023/07/31 06:38:27;;;;;;;;;;;16.50;99.90;;;;;;5131569;27;20394;-60
2023/07/31 06:40:54;;;;;;;;;;;16.50;99.90;;;;;;5113158;27;19927;-60
2023/07/31 06:43:20;;;;;;;;;;;16.70;99.90;;;;;;5132785;27;19927;-61
2023/07/31 06:45:50;;;;;;;;;;;16.70;99.90;;;;;;5134000;27;19923;-60
2023/07/31 06:48:16;;;;;;;;;;;16.80;99.90;;;;;;5130414;27;19923;-60
2023/07/31 06:50:43;;;;;;;;;;;16.90;99.90;;;;;;5132625;27;19931;-60
2023/07/31 06:53:11;;;;;;;;;;;17.10;99.90;;;;;;5130520;27;19930;-59
2023/07/31 06:55:38;;;;;;;;;;;17.30;99.90;;;;;;5111411;27;19931;-60
2023/07/31 06:58:04;;;;;;;;;;;17.40;99.90;;;;;;5115287;27;19927;-60
2023/07/31 07:00:32;;;;;;;;;;;17.50;99.90;;;;;;5131150;27;19960;-61
2023/07/31 07:02:58;;;;;;;;;;;17.60;99.90;;;;;;5128772;27;19931;-60
2023/07/31 07:05:25;;;;;;;;;;;17.70;99.90;;;;;;5111187;27;19930;-60
2023/07/31 07:07:52;;;;;;;;;;;17.80;99.90;;;;;;5132682;27;19948;-60
2023/07/31 07:10:20;;;;;;;;;;;17.70;99.90;;;;;;5132666;27;21228;-60
2023/07/31 07:12:47;;;;;;;;;;;17.70;99.90;;;;;;5114037;27;19923;-61
2023/07/31 07:15:14;;;;;;;;;;;17.70;99.90;;;;;;5133322;27;19976;-60
2023/07/31 07:17:40;;;;;;;;;;;17.70;99.90;;;;;;5114480;27;19927;-61
2023/07/31 07:20:08;;;;;;;;;;;17.70;99.90;;;;;;5111243;27;20032;-61
2023/07/31 07:22:35;;;;;;;;;;;17.70;99.90;;;;;;5132412;27;19931;-60
2023/07/31 07:25:01;;;;;;;;;;;17.70;99.90;;;;;;5131616;27;20409;-61
2023/07/31 07:27:29;;;;;;;;;;;17.70;99.90;;;;;;5133208;27;20366;-60
2023/07/31 07:29:56;;;;;;;;;;;17.60;99.90;;;;;;5133018;27;20388;-61
2023/07/31 07:32:23;;;;;;;;;;;17.60;99.90;;;;;;5130563;27;20294;-61
2023/07/31 07:34:50;;;;;;;;;;;17.50;99.90;;;;;;5133689;27;19930;-61
2023/07/31 07:37:16;;;;;;;;;;;17.50;99.90;;;;;;5132435;27;19924;-60
2023/07/31 07:39:43;;;;;;;;;;;17.50;99.90;;;;;;5112845;27;20410;-61
2023/07/31 07:42:10;;;;;;;;;;;17.50;99.90;;;;;;5132083;27;19927;-61
2023/07/31 07:44:38;;;;;;;;;;;17.50;99.90;;;;;;5114019;27;19924;-60
2023/07/31 07:47:05;;;;;;;;;;;17.50;99.90;;;;;;5108920;27;19969;-60
2023/07/31 07:49:32;;;;;;;;;;;17.50;99.90;;;;;;5133135;27;19953;-60
2023/07/31 07:51:59;;;;;;;;;;;17.50;99.90;;;;;;5131925;27;19930;-59
2023/07/31 07:54:26;;;;;;;;;;;17.50;99.90;;;;;;5114480;27;19931;-60
2023/07/31 07:56:52;;;;;;;;;;;17.40;99.90;;;;;;5131508;27;19923;-60
2023/07/31 07:59:19;;;;;;;;;;;17.40;99.90;;;;;;5133267;27;20418;-59
2023/07/31 08:01:47;;;;;;;;;;;17.30;99.90;;;;;;5111866;27;20379;-60
2023/07/31 08:04:14;;;;;;;;;;;17.30;99.90;;;;;;5115324;27;19928;-60
2023/07/31 08:06:41;;;;;;;;;;;17.30;99.90;;;;;;5129774;27;19923;-60
2023/07/31 08:09:08;;;;;;;;;;;17.30;99.90;;;;;;5133113;27;19931;-59
2023/07/31 08:11:35;;;;;;;;;;;17.30;99.90;;;;;;5110110;27;20028;-60
2023/07/31 08:14:02;;;;;;;;;;;17.20;99.90;;;;;;5130990;27;19999;-60
2023/07/31 08:16:29;;;;;;;;;;;17.20;99.90;;;;;;5132849;27;19976;-59
2023/07/31 08:18:57;;;;;;;;;;;17.30;99.90;;;;;;5107928;28;20376;-60
2023/07/31 08:21:23;;;;;;;;;;;17.30;99.90;;;;;;5110026;28;19931;-60
2023/07/31 08:23:50;;;;;;;;;;;17.30;99.90;;;;;;5110050;28;19924;-60
2023/07/31 08:26:17;;;;;;;;;;;17.30;99.90;;;;;;5110551;28;20303;-60
2023/07/31 08:28:44;;;;;;;;;;;17.40;99.90;;;;;;5108821;28;20400;-60
2023/07/31 08:31:10;;;;;;;;;;;17.50;99.90;;;;;;5108665;28;20391;-60
2023/07/31 08:33:37;;;;;;;;;;;17.60;99.90;;;;;;5107822;28;19932;-60
2023/07/31 08:36:05;;;;;;;;;;;17.90;99.90;;;;;;5110463;28;19936;-60
2023/07/31 08:38:32;;;;;;;;;;;18.00;99.90;;;;;;5106566;28;19923;-61
2023/07/31 08:40:59;;;;;;;;;;;18.00;99.90;;;;;;5109997;28;19924;-60
2023/07/31 08:43:26;;;;;;;;;;;18.10;99.90;;;;;;5106655;28;19960;-59
2023/07/31 08:45:53;;;;;;;;;;;18.30;99.90;;;;;;5105570;28;19927;-60
2023/07/31 08:48:20;;;;;;;;;;;18.50;99.90;;;;;;5107530;28;20372;-61
2023/07/31 08:50:47;;;;;;;;;;;18.70;99.90;;;;;;5108287;28;19923;-60
2023/07/31 08:53:16;;;;;;;;;;;18.60;99.90;;;;;;5109304;28;19928;-61
2023/07/31 08:55:43;;;;;;;;;;;18.50;99.90;;;;;;5108427;28;19973;-61
2023/07/31 08:58:10;;;;;;;;;;;18.50;99.90;;;;;;5104359;28;19931;-59
2023/07/31 09:00:37;;;;;;;;;;;18.40;99.90;;;;;;5107786;28;19931;-60
2023/07/31 09:03:09;;;;;;;;;;;18.30;99.90;;;;;;5102881;28;19928;-60
2023/07/31 09:05:37;;;;;;;;;;;18.30;99.90;;;;;;5110248;28;19924;-60
2023/07/31 09:08:04;;;;;;;;;;;18.30;99.90;;;;;;5111431;28;19969;-60
2023/07/31 09:10:33;;;;;;;;;;;18.30;99.90;;;;;;5109358;28;19924;-60
2023/07/31 09:13:00;;;;;;;;;;;18.30;99.90;;;;;;5110924;28;19924;-60
2023/07/31 09:15:26;;;;;;;;;;;18.30;99.90;;;;;;5105639;28;20286;-60
2023/07/31 09:17:59;;;;;;;;;;;18.40;99.90;;;;;;5106630;28;19977;-60
2023/07/31 09:20:26;;;;;;;;;;;18.40;99.90;;;;;;5123666;28;19930;-60
2023/07/31 09:22:53;;;;;;;;;;;18.40;99.90;;;;;;5132831;28;19927;-60
2023/07/31 09:25:21;;;;;;;;;;;18.30;99.90;;;;;;5126760;28;19923;-59
2023/07/31 09:27:50;;;;;;;;;;;18.30;99.90;;;;;;5132366;28;20306;-60
2023/07/31 09:30:17;;;;;;;;;;;18.20;99.90;;;;;;5128423;27;19928;-60
2023/07/31 09:32:44;;;;;;;;;;;18.20;99.90;;;;;;5133155;27;20325;-60
2023/07/31 09:35:14;;;;;;;;;;;18.20;99.90;;;;;;5133211;27;19968;-60
2023/07/31 09:37:41;;;;;;;;;;;18.00;99.90;;;;;;5135221;27;19927;-61
2023/07/31 09:40:08;;;;;;;;;;;18.10;99.90;;;;;;5109622;27;19934;-60
2023/07/31 09:42:35;;;;;;;;;;;18.10;99.90;;;;;;5135753;27;19927;-60
2023/07/31 09:45:10;;;;;;;;;;;18.20;99.90;;;;;;5109830;27;19977;-60
2023/07/31 09:47:36;;;;;;;;;;;18.20;99.90;;;;;;5135019;27;19923;-60
2023/07/31 09:50:08;;;;;;;;;;;18.10;99.90;;;;;;5132848;27;20298;-59
2023/07/31 09:52:34;;;;;;;;;;;18.20;99.90;;;;;;5131600;27;19928;-59
2023/07/31 09:55:01;;;;;;;;;;;18.30;99.90;;;;;;5113139;27;19928;-59
2023/07/31 09:57:28;;;;;;;;;;;18.30;99.90;;;;;;5133607;27;20011;-59
2023/07/31 09:59:55;;;;;;;;;;;18.40;99.90;;;;;;5134579;27;19991;-60
2023/07/31 10:02:24;;;;;;;;;;;18.40;99.90;;;;;;5114285;27;20039;-59
2023/07/31 10:04:51;;;;;;;;;;;18.50;99.90;;;;;;5113854;27;20371;-60
2023/07/31 10:07:19;;;;;;;;;;;18.70;99.90;;;;;;5133709;27;19927;-60
2023/07/31 10:09:46;;;;;;;;;;;18.80;99.90;;;;;;5135307;27;19927;-62
2023/07/31 10:12:15;;;;;;;;;;;18.90;99.90;;;;;;5111841;27;20021;-63
2023/07/31 10:14:42;;;;;;;;;;;18.90;99.90;;;;;;5132719;27;19930;-62
2023/07/31 10:17:09;;;;;;;;;;;18.90;99.90;;;;;;5129281;27;19976;-59
2023/07/31 10:19:37;;;;;;;;;;;18.90;99.90;;;;;;5134720;27;19934;-60
2023/07/31 10:22:05;;;;;;;;;;;18.80;99.90;;;;;;5112502;27;20011;-59
2023/07/31 10:24:32;;;;;;;;;;;18.80;99.90;;;;;;5134471;27;19976;-60
2023/07/31 10:26:59;;;;;;;;;;;18.70;99.90;;;;;;5132061;27;19927;-60
2023/07/31 10:29:26;;;;;;;;;;;18.70;99.90;;;;;;5115413;27;19968;-60
2023/07/31 10:31:53;;;;;;;;;;;18.70;99.90;;;;;;5133705;27;19980;-60
2023/07/31 10:34:19;;;;;;;;;;;18.70;99.90;;;;;;5115193;27;20069;-61
2023/07/31 10:36:49;;;;;;;;;;;18.90;99.90;;;;;;5134315;27;19938;-61
2023/07/31 10:39:34;;;;;;;;;;;18.90;99.90;;;;;;5133286;27;19935;-61
2023/07/31 10:42:10;;;;;;;;;;;19.00;99.90;;;;;;5130631;27;20410;-60
2023/07/31 10:44:37;;;;;;;;;;;19.00;99.90;;;;;;5132513;27;20267;-59
2023/07/31 10:47:03;;;;;;;;;;;19.00;99.90;;;;;;5116465;27;19924;-60
2023/07/31 10:49:31;;;;;;;;;;;18.90;99.90;;;;;;5130285;27;19923;-59
2023/07/31 10:51:59;;;;;;;;;;;18.90;99.90;;;;;;5132396;27;20019;-60
2023/07/31 10:54:28;;;;;;;;;;;18.90;99.90;;;;;;5131744;27;19932;-60
2023/07/31 10:56:54;;;;;;;;;;;19.00;99.90;;;;;;5133843;27;19927;-61
2023/07/31 10:59:28;;;;;;;;;;;19.10;99.90;;;;;;5108464;27;19931;-61
2023/07/31 11:01:57;;;;;;;;;;;19.10;99.90;;;;;;5131129;27;19953;-61
2023/07/31 11:04:24;;;;;;;;;;;19.20;99.90;;;;;;5131657;27;19923;-60
2023/07/31 11:06:56;;;;;;;;;;;19.40;99.90;;;;;;5132227;27;19975;-60
2023/07/31 11:09:25;;;;;;;;;;;19.40;99.90;;;;;;5130854;27;19924;-60
2023/07/31 11:11:52;;;;;;;;;;;19.60;99.90;;;;;;5110464;27;19927;-60
2023/07/31 11:14:18;;;;;;;;;;;19.70;99.90;;;;;;5133159;27;19930;-60
2023/07/31 11:16:45;;;;;;;;;;;19.90;99.90;;;;;;5127509;27;19927;-60
2023/07/31 11:19:12;;;;;;;;;;;19.90;99.90;;;;;;5112767;27;19943;-61
2023/07/31 11:21:38;;;;;;;;;;;20.00;99.90;;;;;;5131987;27;19923;-61
2023/07/31 11:24:05;;;;;;;;;;;19.80;99.90;;;;;;5133268;27;19923;-60
2023/07/31 11:26:33;;;;;;;;;;;19.70;99.90;;;;;;5127234;27;20026;-61
2023/07/31 11:29:00;;;;;;;;;;;19.80;99.90;;;;;;5134358;27;19923;-59
2023/07/31 11:31:27;;;;;;;;;;;19.80;99.90;;;;;;5107319;27;19924;-60
2023/07/31 11:34:05;;;;;;;;;;;19.70;99.90;;;;;;5128377;27;20295;-61
2023/07/31 11:36:31;;;;;;;;;;;19.60;99.90;;;;;;5112086;27;19930;-61
2023/07/31 11:39:05;;;;;;;;;;;19.40;99.90;;;;;;5133049;27;19930;-63
2023/07/31 11:41:32;;;;;;;;;;;19.40;99.90;;;;;;5109094;27;19924;-63
2023/07/31 11:44:01;;;;;;;;;;;19.30;99.90;;;;;;5130578;27;20295;-63
2023/07/31 11:46:28;;;;;;;;;;;19.30;99.90;;;;;;5131645;27;19973;-61
2023/07/31 11:48:59;;;;;;;;;;;19.20;99.90;;;;;;5130840;27;19981;-61
2023/07/31 11:51:26;;;;;;;;;;;19.20;99.90;;;;;;5110570;27;19969;-61
2023/07/31 11:53:55;;;;;;;;;;;19.20;99.90;;;;;;5110965;27;19928;-61
2023/07/31 11:56:23;;;;;;;;;;;19.20;99.90;;;;;;5132072;27;19932;-61
2023/07/31 11:58:50;;;;;;;;;;;19.20;99.90;;;;;;5105718;27;19928;-60
2023/07/31 12:01:19;;;;;;;;;;;19.40;99.90;;;;;;5132928;27;20546;-61
2023/07/31 12:03:47;;;;;;;;;;;19.50;99.90;;;;;;5133387;27;19928;-61
2023/07/31 12:06:13;;;;;;;;;;;19.70;99.90;;;;;;5132961;27;20383;-62
2023/07/31 12:08:40;;;;;;;;;;;19.80;99.90;;;;;;5133849;27;20379;-62
2023/07/31 12:11:09;;;;;;;;;;;19.80;99.90;;;;;;5134005;27;19939;-60
2023/07/31 12:13:36;;;;;;;;;;;19.90;99.90;;;;;;5113816;27;20349;-61
2023/07/31 12:16:04;;;;;;;;;;;20.20;99.90;;;;;;5133828;27;20360;-60
2023/07/31 12:18:34;;;;;;;;;;;20.50;99.90;;;;;;5114479;27;19927;-61
2023/07/31 12:21:01;;;;;;;;;;;20.60;99.90;;;;;;5113118;27;19923;-60
2023/07/31 12:23:31;;;;;;;;;;;20.60;99.90;;;;;;5132368;27;20408;-60
2023/07/31 12:26:01;;;;;;;;;;;20.40;99.90;;;;;;5133812;27;20413;-61
2023/07/31 12:28:27;;;;;;;;;;;20.30;99.90;;;;;;5112791;27;19927;-61
2023/07/31 12:30:57;;;;;;;;;;;20.20;99.90;;;;;;5133952;27;19923;-60
2023/07/31 12:33:24;;;;;;;;;;;20.30;99.90;;;;;;5131415;27;19980;-61
2023/07/31 12:35:52;;;;;;;;;;;20.50;99.90;;;;;;5133763;27;19943;-61
2023/07/31 12:38:19;;;;;;;;;;;20.60;99.90;;;;;;5133727;27;19924;-60
2023/07/31 12:40:46;;;;;;;;;;;20.70;99.90;;;;;;5132872;27;19924;-60
2023/07/31 12:43:12;;;;;;;;;;;20.60;99.90;;;;;;5133246;27;19930;-60
2023/07/31 12:45:39;;;;;;;;;;;20.60;99.90;;;;;;5133581;28;19945;-60
2023/07/31 12:48:06;;;;;;;;;;;20.70;99.90;;;;;;5110534;27;19946;-60
2023/07/31 12:50:32;;;;;;;;;;;20.70;99.90;;;;;;5124307;28;19931;-61
2023/07/31 12:53:00;;;;;;;;;;;20.80;99.90;;;;;;5106380;28;19988;-61
2023/07/31 12:55:27;;;;;;;;;;;20.70;99.90;;;;;;5132251;28;19928;-61
2023/07/31 12:57:54;;;;;;;;;;;20.60;99.90;;;;;;5131319;28;20371;-61
2023/07/31 13:00:20;;;;;;;;;;;20.60;99.90;;;;;;5113726;28;19923;-60
2023/07/31 13:02:47;;;;;;;;;;;20.50;99.90;;;;;;5130208;28;19927;-60
2023/07/31 13:05:14;;;;;;;;;;;20.40;99.90;;;;;;5132703;27;19977;-59
2023/07/31 13:07:41;;;;;;;;;;;20.30;99.90;;;;;;5134275;27;19930;-60
2023/07/31 13:10:09;;;;;;;;;;;20.30;99.90;;;;;;5115516;27;19945;-59
2023/07/31 13:12:36;;;;;;;;;;;20.40;99.90;;;;;;5113578;27;19932;-59
2023/07/31 13:15:03;;;;;;;;;;;20.50;99.90;;;;;;5136268;27;19930;-60
2023/07/31 13:17:30;;;;;;;;;;;20.60;99.90;;;;;;5134427;27;19983;-60
2023/07/31 13:19:56;;;;;;;;;;;20.60;99.90;;;;;;5135212;27;20373;-60
2023/07/31 13:22:23;;;;;;;;;;;20.60;99.90;;;;;;5133395;27;20023;-60
2023/07/31 13:24:50;;;;;;;;;;;20.60;99.90;;;;;;5117125;27;19927;-60
2023/07/31 13:27:19;;;;;;;;;;;20.50;99.90;;;;;;5133130;27;19977;-60
2023/07/31 13:29:46;;;;;;;;;;;20.40;99.90;;;;;;5116269;27;19986;-60
2023/07/31 13:32:12;;;;;;;;;;;20.50;99.90;;;;;;5112780;27;19927;-60
2023/07/31 13:34:39;;;;;;;;;;;20.60;99.90;;;;;;5115521;27;19924;-60
2023/07/31 13:37:06;;;;;;;;;;;20.70;99.90;;;;;;5111812;27;19931;-60
2023/07/31 13:39:33;;;;;;;;;;;20.80;99.90;;;;;;5130870;27;19928;-60
2023/07/31 13:42:00;;;;;;;;;;;20.90;99.90;;;;;;5134487;27;20317;-60
2023/07/31 13:44:28;;;;;;;;;;;20.90;99.90;;;;;;5113039;27;19976;-60
2023/07/31 13:46:55;;;;;;;;;;;20.90;99.90;;;;;;5116205;27;19923;-61
2023/07/31 13:49:21;;;;;;;;;;;21.20;99.90;;;;;;5134692;27;19923;-60
2023/07/31 13:51:48;;;;;;;;;;;21.30;99.90;;;;;;5134697;27;19976;-60
2023/07/31 13:54:15;;;;;;;;;;;21.60;99.90;;;;;;5113724;27;19931;-60
2023/07/31 13:56:42;;;;;;;;;;;21.90;99.90;;;;;;5135352;27;19976;-60
2023/07/31 13:59:09;;;;;;;;;;;22.30;99.90;;;;;;5113408;27;20402;-61
2023/07/31 14:01:37;;;;;;;;;;;22.60;99.90;;;;;;5135708;27;19938;-61
2023/07/31 14:04:04;;;;;;;;;;;22.70;99.90;;;;;;5132889;27;19927;-60
2023/07/31 14:06:30;;;;;;;;;;;22.60;99.90;;;;;;5115967;27;19924;-61
2023/07/31 14:08:57;;;;;;;;;;;22.50;99.90;;;;;;5113778;27;19972;-60
2023/07/31 14:11:24;;;;;;;;;;;22.20;99.90;;;;;;5135681;27;19976;-61
2023/07/31 14:13:50;;;;;;;;;;;22.00;99.90;;;;;;5131637;27;19932;-60
2023/07/31 14:16:17;;;;;;;;;;;21.90;99.90;;;;;;5132703;27;19924;-60